Time;durP1;ratioP1;P1;durP2;ratioP2;P2;SDS_P1;SDS_P2;PMS_P1;PMS_P2;Temp;Humidity;BMP_temperature;BMP_pressure;BME280_temperature;BME280_humidity;BME280_pressure;Samples;Min_cycle;Max_cycle;Signal;HPM_P1;HPM_P2
2023/10/09 00:02:07;;;;;;;997.47;927.77;;;13.80;99.90;;;;;;5014634;28;20486;-72
2023/10/09 00:04:36;;;;;;;992.50;922.63;;;13.80;99.90;;;;;;5014565;28;20491;-72
2023/10/09 00:07:04;;;;;;;987.97;918.40;;;13.80;99.90;;;;;;5014934;28;20807;-72
2023/10/09 00:09:33;;;;;;;992.37;921.30;;;13.80;99.90;;;;;;5014805;28;20464;-72
2023/10/09 00:12:01;;;;;;;987.10;915.47;;;13.90;99.90;;;;;;5014681;28;20955;-73
2023/10/09 00:14:33;;;;;;;985.57;913.87;;;13.90;99.90;;;;;;5014394;28;20460;-72
2023/10/09 00:17:17;;;;;;;997.80;925.57;;;13.90;99.90;;;;;;5014343;28;20825;-72
2023/10/09 00:19:46;;;;;;;993.53;921.87;;;13.90;99.90;;;;;;5014047;28;20936;-72
2023/10/09 00:22:25;;;;;;;993.73;921.97;;;13.80;99.90;;;;;;5014276;28;20476;-72
2023/10/09 00:25:09;;;;;;;989.53;917.20;;;13.80;99.90;;;;;;5014441;28;20826;-72
2023/10/09 00:27:39;;;;;;;982.70;913.37;;;13.80;99.90;;;;;;5013982;28;20451;-72
2023/10/09 00:30:11;;;;;;;982.47;911.37;;;13.80;99.90;;;;;;5014359;28;20501;-73
2023/10/09 00:32:51;;;;;;;977.60;908.17;;;13.70;99.90;;;;;;5014196;28;20447;-72
2023/10/09 00:35:39;;;;;;;963.80;898.60;;;13.60;99.90;;;;;;5014276;28;20460;-73
2023/10/09 00:38:22;;;;;;;969.30;905.70;;;13.60;99.90;;;;;;5014277;28;20513;-72
2023/10/09 00:40:57;;;;;;;968.80;903.67;;;13.40;99.90;;;;;;5014098;28;20463;-72
2023/10/09 00:43:28;;;;;;;975.73;906.33;;;13.30;99.90;;;;;;5013901;28;20485;-72
2023/10/09 00:46:00;;;;;;;983.47;912.67;;;13.20;99.90;;;;;;5013741;28;20551;-72
2023/10/09 00:48:33;;;;;;;1001.60;926.77;;;13.20;99.90;;;;;;5014145;28;20482;-73
2023/10/09 00:51:01;;;;;;;1004.27;926.40;;;13.20;99.90;;;;;;5013826;28;20950;-72
2023/10/09 00:53:32;;;;;;;1004.03;926.50;;;13.20;99.90;;;;;;5013672;28;20452;-72
2023/10/09 00:56:11;;;;;;;1005.10;928.00;;;13.20;99.90;;;;;;5013888;28;20471;-72
2023/10/09 00:58:40;;;;;;;1004.70;927.13;;;13.10;99.90;;;;;;5014098;28;20465;-72
2023/10/09 01:01:15;;;;;;;1006.10;931.80;;;13.10;99.90;;;;;;5013798;28;20450;-73
2023/10/09 01:03:44;;;;;;;1010.70;933.80;;;13.10;99.90;;;;;;5013414;28;20529;-73
2023/10/09 01:06:20;;;;;;;1008.73;932.40;;;13.10;99.90;;;;;;5013613;28;20465;-72
2023/10/09 01:08:56;;;;;;;1001.47;926.17;;;13.20;99.90;;;;;;5013138;28;20451;-72
2023/10/09 01:11:29;;;;;;;987.57;912.97;;;13.20;99.90;;;;;;5013418;28;20454;-72
2023/10/09 01:14:11;;;;;;;992.37;917.87;;;13.20;99.90;;;;;;5013381;28;20473;-71
2023/10/09 01:16:42;;;;;;;978.60;904.70;;;13.30;99.90;;;;;;5013394;28;20453;-73
2023/10/09 01:19:19;;;;;;;987.23;913.30;;;13.30;99.90;;;;;;5012893;28;20474;-72
2023/10/09 01:21:48;;;;;;;981.67;909.77;;;13.40;99.90;;;;;;5013480;28;20457;-72
2023/10/09 01:24:16;;;;;;;980.37;908.43;;;13.40;99.90;;;;;;5013253;28;20480;-72
2023/10/09 01:26:47;;;;;;;976.37;905.43;;;13.50;99.90;;;;;;5012881;28;20498;-72
2023/10/09 01:29:18;;;;;;;972.10;902.47;;;13.50;99.90;;;;;;5013277;28;20456;-73
2023/10/09 01:31:54;;;;;;;960.50;895.17;;;13.60;99.90;;;;;;5012979;28;20954;-72
2023/10/09 01:34:24;;;;;;;964.70;899.00;;;13.70;99.90;;;;;;5012673;28;20841;-72
2023/10/09 01:36:55;;;;;;;956.13;890.97;;;13.70;99.90;;;;;;5012776;28;20454;-72
2023/10/09 01:39:26;;;;;;;959.47;894.87;;;13.80;99.90;;;;;;5013128;28;20482;-72
2023/10/09 01:41:58;;;;;;;947.80;883.97;;;13.80;99.90;;;;;;5012842;28;20535;-71
2023/10/09 01:44:30;;;;;;;945.33;881.87;;;13.80;99.90;;;;;;5012645;28;20483;-72
2023/10/09 01:46:58;;;;;;;944.50;881.20;;;13.80;99.90;;;;;;5012667;28;20462;-72
2023/10/09 01:49:31;;;;;;;940.83;877.00;;;13.80;99.90;;;;;;5012429;28;20456;-72
2023/10/09 01:52:08;;;;;;;945.53;881.33;;;13.80;99.90;;;;;;5012837;28;20454;-72
2023/10/09 01:54:37;;;;;;;935.47;872.63;;;13.90;99.90;;;;;;5012685;28;20512;-72
2023/10/09 01:57:12;;;;;;;943.90;880.03;;;14.00;99.90;;;;;;5012304;28;21012;-72
2023/10/09 01:59:43;;;;;;;938.10;876.40;;;14.10;99.90;;;;;;5012935;28;20821;-72
2023/10/09 02:02:25;;;;;;;925.90;866.50;;;14.20;99.90;;;;;;5012891;28;20543;-72
2023/10/09 02:04:53;;;;;;;942.87;881.23;;;14.30;99.90;;;;;;5012636;28;20495;-72
2023/10/09 02:07:27;;;;;;;926.87;867.10;;;14.40;99.90;;;;;;5012258;28;21021;-72
2023/10/09 02:09:57;;;;;;;905.97;850.17;;;14.40;99.90;;;;;;5012413;28;20452;-72
2023/10/09 02:12:23;;;;;;;906.73;851.47;;;14.40;99.90;;;;;;5011530;28;20556;-72
2023/10/09 02:14:53;;;;;;;910.87;855.73;;;14.40;99.90;;;;;;5012629;28;20455;-72
2023/10/09 02:17:24;;;;;;;905.10;850.00;;;14.40;99.90;;;;;;5012321;28;20506;-72
2023/10/09 02:19:52;;;;;;;911.60;856.00;;;14.30;99.90;;;;;;5011965;28;20456;-72
2023/10/09 02:22:19;;;;;;;922.77;866.00;;;14.30;99.90;;;;;;5012276;28;20454;-72
2023/10/09 02:24:57;;;;;;;925.40;868.67;;;14.30;99.90;;;;;;5011445;28;20453;-72
2023/10/09 02:27:45;;;;;;;915.77;859.37;;;14.30;99.90;;;;;;5008343;28;20481;-72
2023/10/09 02:30:19;;;;;;;922.67;866.37;;;14.30;99.90;;;;;;5010865;28;20463;-72
2023/10/09 02:32:53;;;;;;;934.27;874.90;;;14.20;99.90;;;;;;5011569;28;20957;-72
2023/10/09 02:35:28;;;;;;;946.57;885.87;;;14.20;99.90;;;;;;5011949;28;20449;-72
2023/10/09 02:37:55;;;;;;;935.13;872.60;;;14.20;99.90;;;;;;5011523;28;20483;-71
2023/10/09 02:40:25;;;;;;;930.23;870.70;;;14.40;99.90;;;;;;5012141;28;20444;-72
2023/10/09 02:42:54;;;;;;;930.43;870.70;;;14.40;99.90;;;;;;5011763;28;20544;-72
2023/10/09 02:45:29;;;;;;;934.30;874.70;;;14.30;99.90;;;;;;5001483;28;20495;-72
2023/10/09 02:47:56;;;;;;;939.20;878.13;;;14.40;99.90;;;;;;5012379;28;20819;-72
2023/10/09 02:50:26;;;;;;;932.37;873.27;;;14.40;99.90;;;;;;5012142;28;20503;-72
2023/10/09 02:53:08;;;;;;;931.20;870.97;;;14.40;99.90;;;;;;5011318;28;20462;-72
2023/10/09 02:55:38;;;;;;;935.27;875.67;;;14.50;99.90;;;;;;5011623;28;20465;-72
2023/10/09 02:58:09;;;;;;;938.10;877.27;;;14.50;99.90;;;;;;5011742;28;20474;-72
2023/10/09 03:00:38;;;;;;;931.80;868.27;;;14.50;99.90;;;;;;5012165;28;20452;-72
2023/10/09 03:03:07;;;;;;;927.07;866.77;;;14.80;99.90;;;;;;5014970;28;20471;-72
2023/10/09 03:05:38;;;;;;;881.70;828.40;;;15.00;99.90;;;;;;5015084;28;20490;-72
2023/10/09 03:08:05;;;;;;;845.77;796.93;;;15.20;99.90;;;;;;5015494;28;20865;-72
2023/10/09 03:10:34;;;;;;;840.03;792.03;;;15.40;99.90;;;;;;5015533;28;20893;-72
2023/10/09 03:13:03;;;;;;;832.50;785.37;;;15.40;99.90;;;;;;5015393;28;20446;-72
2023/10/09 03:15:35;;;;;;;835.57;788.40;;;15.30;99.90;;;;;;5015383;28;20468;-72
2023/10/09 03:18:04;;;;;;;795.70;752.70;;;15.40;99.90;;;;;;5015227;28;20466;-72
2023/10/09 03:20:31;;;;;;;782.20;741.07;;;15.50;99.90;;;;;;5015113;28;20462;-72
2023/10/09 03:23:01;;;;;;;785.73;744.70;;;15.50;99.90;;;;;;5015114;28;20469;-72
2023/10/09 03:25:28;;;;;;;762.43;723.60;;;15.50;99.90;;;;;;5015271;28;20454;-72
2023/10/09 03:27:56;;;;;;;724.43;689.33;;;15.60;99.90;;;;;;5015446;28;20449;-72
2023/10/09 03:30:23;;;;;;;727.70;692.90;;;15.60;99.90;;;;;;5015404;28;20460;-72
2023/10/09 03:32:52;;;;;;;668.80;637.87;;;15.60;99.90;;;;;;5014444;28;20454;-72
2023/10/09 03:35:25;;;;;;;547.13;524.00;;;15.60;99.90;;;;;;5014766;28;20454;-72
2023/10/09 03:37:56;;;;;;;479.07;459.97;;;15.70;99.90;;;;;;5014891;28;20449;-72
2023/10/09 03:40:24;;;;;;;423.03;406.67;;;15.80;99.90;;;;;;5005108;28;20450;-72
2023/10/09 03:42:52;;;;;;;372.90;358.80;;;15.80;99.90;;;;;;5014911;28;20732;-71
2023/10/09 03:45:25;;;;;;;321.93;310.27;;;15.90;99.90;;;;;;5015090;28;20452;-72
2023/10/09 03:48:01;;;;;;;270.10;260.83;;;15.90;99.90;;;;;;5015266;28;20456;-72
2023/10/09 03:50:35;;;;;;;151.53;145.17;;;16.00;99.90;;;;;;5015167;28;20823;-72
2023/10/09 03:53:06;;;;;;;164.93;158.43;;;16.10;99.90;;;;;;5014937;28;20452;-72
2023/10/09 03:55:33;;;;;;;143.27;137.80;;;16.10;99.90;;;;;;5014768;28;20930;-72
2023/10/09 03:58:00;;;;;;;111.63;106.50;;;16.20;99.90;;;;;;5014700;28;20464;-72
2023/10/09 04:00:30;;;;;;;69.30;65.90;;;16.30;99.90;;;;;;5015106;28;20451;-72
2023/10/09 04:02:59;;;;;;;86.20;82.37;;;16.30;99.90;;;;;;5014042;28;20457;-72
2023/10/09 04:05:27;;;;;;;151.07;145.30;;;16.20;99.90;;;;;;5014136;28;20459;-72
2023/10/09 04:07:58;;;;;;;245.90;237.20;;;16.10;99.90;;;;;;5014672;28;20478;-72
2023/10/09 04:10:43;;;;;;;315.07;303.97;;;15.90;99.90;;;;;;5014746;28;20477;-72
2023/10/09 04:13:12;;;;;;;367.67;354.47;;;15.80;99.90;;;;;;5014220;28;20968;-72
2023/10/09 04:15:42;;;;;;;384.40;370.50;;;15.60;99.90;;;;;;5014228;28;20938;-72
2023/10/09 04:18:15;;;;;;;398.17;382.63;;;15.60;99.90;;;;;;5013786;28;20459;-72
2023/10/09 04:21:18;;;;;;;414.10;397.47;;;15.60;99.90;;;;;;5013900;28;20451;-72
2023/10/09 04:23:59;;;;;;;383.50;368.80;;;15.50;99.90;;;;;;5013247;28;20491;-72
2023/10/09 04:26:25;;;;;;;413.43;397.30;;;15.60;99.90;;;;;;5013131;28;20446;-72
2023/10/09 04:28:52;;;;;;;403.30;387.07;;;15.60;99.90;;;;;;5013946;28;20514;-72
2023/10/09 04:31:22;;;;;;;409.30;393.30;;;15.60;99.90;;;;;;5013372;28;20818;-72
2023/10/09 04:34:21;;;;;;;416.97;400.23;;;15.60;99.90;;;;;;5013610;28;20505;-72
2023/10/09 04:36:49;;;;;;;412.60;395.87;;;15.60;99.90;;;;;;5013535;28;20455;-72
2023/10/09 04:39:35;;;;;;;425.50;408.20;;;15.60;99.90;;;;;;5010113;28;20456;-72
2023/10/09 04:42:34;;;;;;;408.73;392.13;;;15.60;99.90;;;;;;5014068;28;20542;-72
2023/10/09 04:48:07;;;;;;;413.60;396.53;;;15.60;99.90;;;;;;4972411;28;20480;-72
2023/10/09 04:51:20;;;;;;;396.50;379.90;;;15.60;99.90;;;;;;4972587;28;20453;-72
2023/10/09 04:53:43;;;;;;;393.93;377.33;;;15.60;99.90;;;;;;5000702;28;20538;-70
2023/10/09 04:56:15;;;;;;;381.93;366.53;;;15.60;99.90;;;;;;5013682;28;20501;-72
2023/10/09 04:58:43;;;;;;;364.80;350.30;;;15.60;99.90;;;;;;5013659;28;20534;-72
2023/10/09 05:01:16;;;;;;;373.07;357.67;;;15.60;99.90;;;;;;5013684;28;20530;-72
2023/10/09 05:03:56;;;;;;;375.50;359.70;;;15.60;99.90;;;;;;5013794;28;20506;-72
2023/10/09 05:09:13;;;;;;;358.90;344.30;;;15.50;99.90;;;;;;5013911;28;20485;-72
2023/10/09 05:12:09;;;;;;;368.10;352.60;;;15.50;99.90;;;;;;5013223;28;20526;-72
2023/10/09 05:14:54;;;;;;;361.87;346.77;;;15.50;99.90;;;;;;5013448;28;20578;-72
2023/10/09 05:17:25;;;;;;;363.20;348.27;;;15.50;99.90;;;;;;5013513;28;20810;-72
2023/10/09 05:20:55;;;;;;;354.40;339.60;;;15.50;99.90;;;;;;5012731;28;20974;-72
2023/10/09 05:22:59;;;;;;;322.23;309.00;;;15.50;99.90;;;;;;5012603;28;20869;-72
2023/10/09 05:28:30;;;;;;;326.43;313.33;;;15.50;99.90;;;;;;5130834;27;20530;-71
2023/10/09 05:31:06;;;;;;;314.13;301.90;;;15.40;99.90;;;;;;5130494;28;20495;-71
2023/10/09 05:33:36;;;;;;;307.27;295.20;;;15.40;99.90;;;;;;5130421;28;20444;-71
2023/10/09 05:36:31;;;;;;;295.13;283.53;;;15.40;99.90;;;;;;5130343;27;20482;-71
2023/10/09 05:39:17;;;;;;;284.73;273.40;;;15.50;99.90;;;;;;5130517;27;20457;-71
2023/10/09 05:41:52;;;;;;;280.80;269.70;;;15.50;99.90;;;;;;5130089;28;20446;-71
2023/10/09 05:49:54;;;;;;;250.60;240.77;;;15.50;99.90;;;;;;5129095;27;20801;-71
2023/10/09 05:52:32;;;;;;;235.90;226.70;;;15.50;99.90;;;;;;5129688;27;20439;-71
2023/10/09 06:03:25;;;;;;;199.80;192.00;;;15.70;99.90;;;;;;5129940;28;20513;-71
2023/10/09 06:06:04;;;;;;;209.47;200.90;;;15.70;99.90;;;;;;5129769;28;20495;-71
2023/10/09 06:14:04;;;;;;;194.17;186.50;;;15.80;99.90;;;;;;5129812;28;20449;-71
2023/10/09 06:16:41;;;;;;;184.17;176.70;;;15.80;99.90;;;;;;5129719;28;20504;-72
2023/10/09 06:19:12;;;;;;;193.07;185.97;;;15.80;99.90;;;;;;5129404;27;20452;-71
2023/10/09 06:24:33;;;;;;;145.00;139.07;;;15.90;99.90;;;;;;5129528;27;20201;-71
2023/10/09 06:27:24;;;;;;;144.87;138.10;;;15.90;99.90;;;;;;5129449;28;20476;-71
2023/10/09 06:30:13;;;;;;;146.43;140.40;;;16.00;99.90;;;;;;5129036;27;20494;-70
2023/10/09 06:32:57;;;;;;;136.60;130.33;;;16.00;99.90;;;;;;5129207;27;20447;-71
2023/10/09 06:35:30;;;;;;;130.77;124.97;;;16.10;99.90;;;;;;5129139;28;20456;-71
2023/10/09 06:43:53;;;;;;;97.80;93.30;;;16.40;99.90;;;;;;5114825;28;20436;-71
2023/10/09 06:46:44;;;;;;;82.90;79.20;;;16.40;99.90;;;;;;5115196;28;20539;-70
2023/10/09 06:49:33;;;;;;;102.97;98.27;;;16.50;99.90;;;;;;5115252;28;20480;-71
2023/10/09 06:52:15;;;;;;;65.53;61.87;;;16.50;99.90;;;;;;5115044;28;20453;-70
2023/10/09 06:54:50;;;;;;;44.80;41.53;;;16.50;99.90;;;;;;5114801;28;20448;-70
2023/10/09 06:57:43;;;;;;;46.17;43.27;;;16.60;99.90;;;;;;5114764;28;20453;-71
2023/10/09 07:02:57;;;;;;;46.30;42.73;;;16.70;99.90;;;;;;5114451;28;20428;-70
2023/10/09 07:05:31;;;;;;;40.73;37.30;;;16.80;99.90;;;;;;5114523;28;20943;-70
2023/10/09 07:08:28;;;;;;;32.70;30.20;;;16.80;99.90;;;;;;5114837;28;20844;-70
2023/10/09 07:11:21;;;;;;;30.63;27.93;;;16.80;99.90;;;;;;5114345;28;20445;-71
2023/10/09 07:13:37;;;;;;;24.63;22.20;;;16.90;99.90;;;;;;5114173;28;20445;-71
2023/10/09 07:18:54;;;;;;;21.43;16.73;;;17.10;99.90;;;;;;5093348;28;20974;-71
2023/10/09 07:21:28;;;;;;;20.10;15.83;;;17.20;99.90;;;;;;5114459;28;20468;-70
2023/10/09 07:24:04;;;;;;;27.47;14.63;;;17.40;99.90;;;;;;5114309;28;20490;-70
2023/10/09 07:26:37;;;;;;;18.23;13.70;;;17.50;99.90;;;;;;5114189;27;20531;-71
2023/10/09 07:29:21;;;;;;;17.13;12.10;;;17.60;99.90;;;;;;5113816;28;20448;-70
2023/10/09 07:31:57;;;;;;;16.67;11.30;;;17.60;99.90;;;;;;5114105;28;20822;-71
2023/10/09 07:34:52;;;;;;;14.20;10.97;;;17.70;99.90;;;;;;5113748;28;20781;-70
2023/10/09 07:37:22;;;;;;;19.77;10.20;;;17.70;97.50;;;;;;5105802;28;20433;-71
2023/10/09 07:39:58;;;;;;;21.27;11.40;;;17.70;97.50;;;;;;5114178;28;20449;-70
2023/10/09 07:42:43;;;;;;;17.80;10.23;;;17.80;97.60;;;;;;5114225;28;20939;-71
2023/10/09 07:45:53;;;;;;;15.37;9.83;;;17.80;97.60;;;;;;5114657;28;20444;-70
2023/10/09 07:48:04;;;;;;;30.13;10.70;;;17.80;96.70;;;;;;5114110;28;20842;-71
2023/10/09 07:50:40;;;;;;;20.40;10.30;;;17.90;97.60;;;;;;5113362;28;20917;-70
2023/10/09 07:53:26;;;;;;;16.57;10.17;;;17.90;97.00;;;;;;5114133;28;20813;-70
2023/10/09 07:55:58;;;;;;;15.93;10.30;;;18.00;97.60;;;;;;5114107;27;20456;-71
2023/10/09 07:58:26;;;;;;;15.48;11.52;;;18.00;96.40;;;;;;5112719;28;20439;-71
2023/10/09 08:03:38;;;;;;;15.33;8.93;;;18.10;94.90;;;;;;5113823;28;20804;-71
2023/10/09 08:06:37;;;;;;;15.53;9.60;;;18.20;94.40;;;;;;5113890;28;20543;-71
2023/10/09 08:17:11;;;;;;;14.10;9.00;;;18.60;94.60;;;;;;5113588;28;20437;-74
2023/10/09 08:19:51;;;;;;;17.63;9.23;;;18.70;94.60;;;;;;5113695;28;20520;-74
2023/10/09 08:22:42;;;;;;;13.60;8.50;;;18.70;94.60;;;;;;5113719;28;20480;-74
2023/10/09 08:25:07;;;;;;;13.83;8.70;;;18.80;94.60;;;;;;5113630;28;20531;-74
2023/10/09 08:27:54;;;;;;;18.20;10.73;;;18.70;94.60;;;;;;5113510;28;20838;-74
2023/10/09 08:30:40;;;;;;;16.33;8.63;;;18.60;94.50;;;;;;5113620;28;20784;-74
2023/10/09 08:35:48;;;;;;;16.87;9.90;;;18.70;94.50;;;;;;5099889;28;20494;-74
2023/10/09 08:38:23;;;;;;;16.80;9.93;;;18.70;93.00;;;;;;5112937;28;20479;-74
2023/10/09 08:40:58;;;;;;;20.20;9.80;;;18.90;92.80;;;;;;5113502;28;20440;-74
2023/10/09 08:43:25;;;;;;;16.80;9.07;;;19.00;93.40;;;;;;5113289;28;20444;-74
2023/10/09 08:46:00;;;;;;;17.80;10.03;;;19.00;91.30;;;;;;5113204;28;20476;-73
2023/10/09 08:48:29;;;;;;;18.57;9.67;;;19.20;91.30;;;;;;5113114;28;20994;-73
2023/10/09 08:50:57;;;;;;;14.43;9.00;;;19.40;91.40;;;;;;5114841;28;20450;-73
2023/10/09 08:53:27;;;;;;;15.27;9.63;;;19.60;88.30;;;;;;5114653;28;20448;-73
2023/10/09 08:55:56;;;;;;;24.53;10.80;;;19.80;85.90;;;;;;5113980;28;20443;-72
2023/10/09 08:58:30;;;;;;;25.00;10.27;;;19.80;85.80;;;;;;5113245;28;20451;-73
2023/10/09 09:00:58;;;;;;;14.90;9.03;;;19.60;85.70;;;;;;5112861;28;20517;-72
2023/10/09 09:03:25;;;;;;;17.13;9.97;;;19.60;89.60;;;;;;5112385;28;20448;-73
2023/10/09 09:06:00;;;;;;;20.70;9.47;;;19.60;89.50;;;;;;5112371;28;20452;-73
2023/10/09 09:08:29;;;;;;;14.97;8.70;;;19.60;88.20;;;;;;5112969;28;20475;-72
2023/10/09 09:11:11;;;;;;;18.43;10.17;;;19.50;88.20;;;;;;5114088;28;20487;-73
2023/10/09 09:13:41;;;;;;;19.00;10.60;;;19.80;89.60;;;;;;5113297;28;20457;-72
2023/10/09 09:16:15;;;;;;;18.10;9.67;;;20.00;86.20;;;;;;5113678;28;20289;-71
2023/10/09 09:18:56;;;;;;;20.53;10.63;;;20.30;86.30;;;;;;5112897;28;20691;-72
2023/10/09 09:21:23;;;;;;;17.10;10.03;;;20.30;84.40;;;;;;5112062;28;20459;-71
2023/10/09 09:24:00;;;;;;;14.10;8.33;;;20.50;82.10;;;;;;5110993;28;20539;-71
2023/10/09 09:26:44;;;;;;;21.50;9.80;;;20.70;82.70;;;;;;5112353;28;20820;-72
2023/10/09 09:29:12;;;;;;;15.00;9.60;;;20.80;79.20;;;;;;5112293;28;20432;-72
2023/10/09 09:31:41;;;;;;;17.10;8.53;;;20.90;82.10;;;;;;5112625;28;20525;-71
2023/10/09 09:34:15;;;;;;;16.37;9.70;;;21.00;79.10;;;;;;5111800;28;20866;-71
2023/10/09 09:36:54;;;;;;;16.70;8.67;;;20.90;76.50;;;;;;5112378;28;20473;-72
2023/10/09 09:39:28;;;;;;;16.87;9.50;;;20.90;74.80;;;;;;5112144;28;20475;-71
2023/10/09 09:42:03;;;;;;;15.47;9.23;;;21.10;75.20;;;;;;5111690;28;20444;-72
2023/10/09 09:44:33;;;;;;;15.43;7.70;;;21.30;71.30;;;;;;5112144;28;20450;-72
2023/10/09 09:47:06;;;;;;;14.10;8.33;;;21.50;71.50;;;;;;5111277;28;20466;-72
2023/10/09 09:49:34;;;;;;;14.37;7.77;;;21.60;71.60;;;;;;5111127;28;20985;-71
2023/10/09 09:52:09;;;;;;;15.63;8.43;;;21.70;63.40;;;;;;5110963;28;20476;-72
2023/10/09 09:54:37;;;;;;;17.30;9.10;;;21.90;63.70;;;;;;5111039;28;20475;-72
2023/10/09 09:57:10;;;;;;;13.00;8.20;;;21.90;63.60;;;;;;5110847;28;20936;-72
2023/10/09 09:59:49;;;;;;;13.47;7.77;;;22.20;63.80;;;;;;5111053;28;20501;-70
2023/10/09 10:02:22;;;;;;;15.77;8.00;;;22.70;60.30;;;;;;5112004;28;20486;-70
2023/10/09 10:04:54;;;;;;;14.40;6.97;;;23.30;56.30;;;;;;5112047;28;20440;-69
2023/10/09 10:07:23;;;;;;;12.93;8.37;;;23.30;50.60;;;;;;5112377;28;20525;-69
2023/10/09 10:09:54;;;;;;;13.83;7.57;;;23.30;47.60;;;;;;5112622;28;20873;-69
2023/10/09 10:13:00;;;;;;;16.13;7.50;;;23.40;51.80;;;;;;5112333;28;20457;-69
2023/10/09 10:15:56;;;;;;;15.13;7.90;;;23.30;51.80;;;;;;5116650;27;20480;-69
2023/10/09 10:18:23;;;;;;;14.27;7.27;;;23.30;49.50;;;;;;5103514;28;20791;-70
2023/10/09 10:21:17;;;;;;;12.10;6.30;;;23.20;47.40;;;;;;5115991;28;20487;-69
2023/10/09 10:23:47;;;;;;;16.07;6.67;;;22.90;47.10;;;;;;5116075;28;20493;-70
2023/10/09 10:26:20;;;;;;;12.63;6.83;;;22.90;48.00;;;;;;5116792;28;20484;-70
2023/10/09 10:29:22;;;;;;;11.43;5.47;;;23.00;44.80;;;;;;5116141;28;20476;-70
2023/10/09 10:32:00;;;;;;;10.50;5.53;;;23.00;47.20;;;;;;5116276;28;20443;-69
2023/10/09 10:34:47;;;;;;;12.40;5.70;;;23.20;42.20;;;;;;5116180;28;20443;-69
2023/10/09 10:37:14;;;;;;;14.33;6.40;;;23.30;40.70;;;;;;5116434;28;20484;-70
2023/10/09 10:39:51;;;;;;;14.93;7.30;;;23.00;38.10;;;;;;5116002;28;20450;-70
2023/10/09 10:45:02;;;;;;;11.77;6.90;;;22.90;43.10;;;;;;5116202;28;20437;-70
2023/10/09 10:47:34;;;;;;;14.60;7.47;;;22.60;41.80;;;;;;5115484;28;20497;-70
2023/10/09 10:50:20;;;;;;;18.73;8.00;;;22.50;37.70;;;;;;5115963;28;20448;-70
2023/10/09 10:52:57;;;;;;;18.83;8.00;;;22.20;46.40;;;;;;5115692;28;20452;-70
2023/10/09 10:58:23;;;;;;;13.23;6.93;;;22.10;46.30;;;;;;5115809;28;20431;-69
2023/10/09 11:01:12;;;;;;;12.03;6.70;;;22.00;46.20;;;;;;5115638;28;21095;-69
2023/10/09 11:03:54;;;;;;;17.60;8.40;;;22.00;46.20;;;;;;5115121;28;20461;-69
2023/10/09 11:06:35;;;;;;;18.03;7.40;;;21.90;46.20;;;;;;5114966;28;20928;-69
2023/10/09 11:09:09;;;;;;;15.25;7.70;;;21.90;48.00;;;;;;5114730;28;20451;-69
2023/10/09 11:11:41;;;;;;;16.80;9.20;;;22.00;46.30;;;;;;5114581;28;20239;-69
2023/10/09 11:14:14;;;;;;;19.07;7.47;;;22.00;50.00;;;;;;5115153;28;20453;-69
2023/10/09 11:16:42;;;;;;;16.00;8.47;;;21.90;47.00;;;;;;5115449;28;20459;-69
2023/10/09 11:19:22;;;;;;;14.63;7.93;;;21.90;46.10;;;;;;5115083;28;20445;-69
2023/10/09 11:21:58;;;;;;;13.40;7.20;;;22.10;46.30;;;;;;5114953;28;20543;-69
2023/10/09 11:24:27;;;;;;;16.13;7.50;;;22.00;46.20;;;;;;5114800;28;20452;-69
2023/10/09 11:26:55;;;;;;;14.40;8.00;;;22.10;46.30;;;;;;5114933;28;20466;-69
2023/10/09 11:29:52;;;;;;;13.43;8.13;;;22.10;48.80;;;;;;5115067;28;20472;-69
2023/10/09 11:32:18;;;;;;;15.50;7.40;;;22.20;52.10;;;;;;5115029;28;20449;-69
2023/10/09 11:34:51;;;;;;;12.90;8.47;;;22.10;46.30;;;;;;5114728;28;20441;-69
2023/10/09 11:37:38;;;;;;;15.20;8.43;;;22.10;46.30;;;;;;5114933;28;20928;-69
2023/10/09 11:40:21;;;;;;;13.80;7.40;;;22.20;48.40;;;;;;5114832;28;20524;-69
2023/10/09 11:42:50;;;;;;;14.50;7.10;;;22.20;46.40;;;;;;5114443;28;20456;-69
2023/10/09 11:45:24;;;;;;;21.70;9.87;;;22.00;46.20;;;;;;5114895;28;20493;-69
2023/10/09 11:48:00;;;;;;;17.63;9.93;;;22.00;46.30;;;;;;5114874;28;20476;-69
2023/10/09 11:50:43;;;;;;;21.08;10.27;;;21.90;46.20;;;;;;5113685;28;20458;-69
2023/10/09 11:53:17;;;;;;;21.27;9.03;;;22.10;46.40;;;;;;5114799;28;20194;-69
2023/10/09 11:55:48;;;;;;;16.03;9.10;;;22.30;46.50;;;;;;5114613;28;20448;-69
2023/10/09 11:58:22;;;;;;;17.57;10.27;;;22.40;46.60;;;;;;5114965;28;20536;-70
2023/10/09 12:00:51;;;;;;;21.70;10.43;;;22.20;46.40;;;;;;5114415;28;20452;-70
2023/10/09 12:03:23;;;;;;;17.10;9.30;;;22.40;46.60;;;;;;5113715;28;20812;-70
2023/10/09 12:05:50;;;;;;;16.83;9.63;;;22.50;46.90;;;;;;5112488;28;20444;-69
2023/10/09 12:08:17;;;;;;;19.97;11.20;;;22.60;46.80;;;;;;5114467;28;20559;-70
2023/10/09 12:10:44;;;;;;;19.80;9.47;;;22.50;46.70;;;;;;5114327;28;20445;-69
2023/10/09 12:13:11;;;;;;;19.03;9.33;;;22.40;46.60;;;;;;5113924;28;20933;-70
2023/10/09 12:15:38;;;;;;;20.83;8.93;;;22.60;46.80;;;;;;5114302;28;20475;-70
2023/10/09 12:18:14;;;;;;;16.60;9.83;;;22.70;46.90;;;;;;5113633;28;20536;-69
2023/10/09 12:20:49;;;;;;;15.60;9.87;;;22.70;46.90;;;;;;5113516;28;20444;-69
2023/10/09 12:23:16;;;;;;;13.17;8.80;;;23.10;47.30;;;;;;5114245;28;20482;-69
2023/10/09 12:25:44;;;;;;;16.20;9.47;;;23.30;45.10;;;;;;5113598;28;21117;-69
2023/10/09 12:28:13;;;;;;;15.67;9.50;;;23.10;44.90;;;;;;5113559;28;21188;-69
2023/10/09 12:30:41;;;;;;;16.60;10.30;;;23.10;42.30;;;;;;5112856;28;20449;-69
2023/10/09 12:33:09;;;;;;;17.47;10.33;;;23.10;38.20;;;;;;5113337;28;20495;-69
2023/10/09 12:35:39;;;;;;;15.43;10.73;;;23.00;38.10;;;;;;5112908;28;20531;-69
2023/10/09 12:38:10;;;;;;;22.83;10.90;;;23.00;38.10;;;;;;5113841;28;20539;-69
2023/10/09 12:40:39;;;;;;;22.60;9.60;;;22.60;42.10;;;;;;5113626;28;20454;-69
2023/10/09 12:43:15;;;;;;;16.00;11.20;;;22.50;42.00;;;;;;5113093;28;21023;-72
2023/10/09 12:45:42;;;;;;;16.40;8.50;;;22.50;42.90;;;;;;5113717;28;20535;-77
2023/10/09 12:48:09;;;;;;;14.57;9.20;;;22.50;46.70;;;;;;5113034;28;20468;-74
2023/10/09 12:50:41;;;;;;;16.13;10.00;;;22.50;46.60;;;;;;5113245;28;20484;-74
2023/10/09 12:53:10;;;;;;;23.07;10.37;;;22.40;43.60;;;;;;5112672;28;20452;-75
2023/10/09 12:55:40;;;;;;;19.07;9.80;;;22.30;40.10;;;;;;5112119;28;20551;-75
2023/10/09 12:58:08;;;;;;;17.13;9.93;;;22.40;43.40;;;;;;5112760;28;20505;-75
2023/10/09 13:00:37;;;;;;;20.03;9.30;;;22.40;46.60;;;;;;5112930;28;20449;-75
2023/10/09 13:03:16;;;;;;;17.25;10.43;;;22.20;46.40;;;;;;5112626;28;20449;-75
2023/10/09 13:05:54;;;;;;;16.50;9.57;;;22.10;46.30;;;;;;5112026;28;20203;-75
2023/10/09 13:08:25;;;;;;;13.30;9.10;;;22.20;46.40;;;;;;5112198;28;20862;-74
2023/10/09 13:10:58;;;;;;;16.20;9.07;;;22.20;46.40;;;;;;5112627;28;20456;-74
2023/10/09 13:13:41;;;;;;;18.43;9.67;;;22.10;46.40;;;;;;5112115;28;20445;-74
2023/10/09 13:16:11;;;;;;;18.73;9.20;;;22.10;46.30;;;;;;5112820;28;20456;-71
2023/10/09 13:18:39;;;;;;;19.43;10.00;;;22.30;46.50;;;;;;5112809;28;20441;-71
2023/10/09 13:21:06;;;;;;;12.93;8.20;;;22.30;46.30;;;;;;5112030;28;20447;-71
2023/10/09 13:23:46;;;;;;;18.27;7.90;;;22.30;43.80;;;;;;5112626;28;20444;-71
2023/10/09 13:26:23;;;;;;;13.07;7.20;;;22.30;46.50;;;;;;5107539;28;20452;-71
2023/10/09 13:28:51;;;;;;;15.27;8.10;;;22.20;46.40;;;;;;5111674;28;20464;-71
2023/10/09 13:31:20;;;;;;;15.63;8.27;;;22.10;46.40;;;;;;5111669;28;21054;-71
2023/10/09 13:33:49;;;;;;;15.00;8.73;;;22.00;46.20;;;;;;5112093;28;20483;-71
2023/10/09 13:36:26;;;;;;;16.13;7.73;;;21.90;46.20;;;;;;5112194;28;20829;-71
2023/10/09 13:38:55;;;;;;;15.20;8.20;;;21.80;46.10;;;;;;5112418;28;20493;-71
2023/10/09 13:41:25;;;;;;;16.87;8.23;;;21.90;50.40;;;;;;5112134;28;20444;-71
2023/10/09 13:43:52;;;;;;;17.57;8.63;;;21.90;50.20;;;;;;5111520;28;20445;-71
2023/10/09 13:46:19;;;;;;;18.50;9.13;;;21.90;50.50;;;;;;5112220;28;20483;-71
2023/10/09 13:48:49;;;;;;;15.97;8.83;;;21.80;50.80;;;;;;5112975;28;20468;-72
2023/10/09 13:51:17;;;;;;;17.63;8.10;;;21.80;52.90;;;;;;5115946;28;20455;-71
2023/10/09 13:53:47;;;;;;;14.40;9.40;;;21.90;51.70;;;;;;5116117;28;20451;-72
2023/10/09 13:56:18;;;;;;;19.10;8.30;;;22.00;49.30;;;;;;5116268;28;20449;-72
2023/10/09 13:58:49;;;;;;;15.60;9.37;;;22.00;46.20;;;;;;5116349;28;20433;-71